Time;durP1;ratioP1;P1;durP2;ratioP2;P2;SDS_P1;SDS_P2;PMS_P1;PMS_P2;Temp;Humidity;BMP_temperature;BMP_pressure;BME280_temperature;BME280_humidity;BME280_pressure;Samples;Min_cycle;Max_cycle;Signal;HPM_P1;HPM_P2
2024/02/03 00:01:01;;;;;;;10.70;5.10;;;;;;;7.24;63.93;99053.36;232233;200;136900;-51
2024/02/03 00:06:24;;;;;;;9.20;4.70;;;;;;;7.24;63.96;99047.88;232208;203;137537;-51
2024/02/03 00:11:28;;;;;;;10.10;5.00;;;;;;;7.27;63.94;99036.09;232061;201;151629;-51
2024/02/03 00:16:31;;;;;;;12.30;4.90;;;;;;;7.33;64.01;99053.79;232173;200;136883;-53
2024/02/03 00:21:34;;;;;;;9.30;4.70;;;;;;;7.37;64.24;99053.61;232184;197;137713;-51
2024/02/03 00:26:38;;;;;;;12.70;5.30;;;;;;;7.27;64.97;99054.98;232254;204;151974;-52
2024/02/03 00:31:41;;;;;;;10.40;5.50;;;;;;;7.23;65.52;99058.84;232240;198;136549;-55
2024/02/03 00:36:44;;;;;;;11.70;4.70;;;;;;;7.23;66.15;99060.44;232082;204;138102;-52
2024/02/03 00:41:47;;;;;;;11.00;4.90;;;;;;;7.21;67.16;99071.66;232115;200;151287;-53
2024/02/03 00:46:51;;;;;;;12.20;5.70;;;;;;;7.20;67.71;99070.33;231884;197;138411;-53
2024/02/03 00:51:54;;;;;;;12.80;5.70;;;;;;;7.19;68.11;99078.47;232131;203;138739;-53
2024/02/03 00:56:58;;;;;;;11.00;5.50;;;;;;;7.20;68.65;99072.58;232031;201;151121;-50
2024/02/03 01:02:01;;;;;;;10.90;6.00;;;;;;;7.18;68.96;99075.35;232155;204;136609;-51
2024/02/03 01:07:06;;;;;;;10.60;5.70;;;;;;;7.14;69.04;99058.08;231680;200;137267;-50
2024/02/03 01:12:10;;;;;;;13.10;5.60;;;;;;;7.15;69.38;99047.27;232123;201;152234;-51
2024/02/03 01:17:13;;;;;;;11.30;6.00;;;;;;;7.13;69.18;99048.60;232220;201;138158;-53
2024/02/03 01:22:16;;;;;;;9.50;5.50;;;;;;;7.15;69.21;99053.63;232249;200;138440;-53
2024/02/03 01:27:20;;;;;;;11.20;5.30;;;;;;;7.23;69.50;99054.27;232171;201;151860;-54
2024/02/03 01:32:23;;;;;;;11.60;5.90;;;;;;;7.34;69.35;99052.70;232168;204;138301;-53
2024/02/03 01:37:26;;;;;;;9.80;5.60;;;;;;;7.40;69.46;99047.80;232400;197;137463;-53
2024/02/03 01:42:29;;;;;;;9.40;5.90;;;;;;;7.34;69.51;99035.77;232119;204;151495;-55
2024/02/03 01:47:33;;;;;;;10.50;6.40;;;;;;;7.28;69.79;99031.66;232032;204;136818;-54
2024/02/03 01:52:36;;;;;;;8.10;4.90;;;;;;;7.34;69.83;99021.45;231850;201;137237;-52
2024/02/03 01:57:42;;;;;;;10.70;5.90;;;;;;;7.33;69.83;99022.90;232171;201;152578;-52
2024/02/03 02:02:46;;;;;;;10.10;5.20;;;;;;;7.33;69.81;99016.91;232101;196;138262;-47
2024/02/03 02:07:49;;;;;;;11.30;5.10;;;;;;;7.26;70.10;99021.31;232441;203;137564;-52
2024/02/03 02:12:52;;;;;;;10.40;5.60;;;;;;;7.29;70.14;99003.67;232242;204;151425;-52
2024/02/03 02:17:59;;;;;;;10.30;5.50;;;;;;;7.36;69.93;98995.60;232204;200;138105;-53
2024/02/03 02:23:03;;;;;;;10.50;6.10;;;;;;;7.39;69.84;98993.70;232172;197;137535;-53
2024/02/03 02:28:06;;;;;;;7.70;4.70;;;;;;;7.39;69.70;98986.65;232269;204;152666;-54
2024/02/03 02:33:09;;;;;;;10.60;5.10;;;;;;;7.37;69.61;98964.14;232248;204;141473;-51
2024/02/03 02:38:13;;;;;;;9.80;4.90;;;;;;;7.41;69.55;98971.50;232293;204;138780;-50
2024/02/03 02:43:16;;;;;;;10.90;5.60;;;;;;;7.47;69.36;98972.30;232300;198;152302;-50
2024/02/03 02:48:19;;;;;;;10.10;5.10;;;;;;;7.52;68.99;98960.56;232073;197;139656;-52
2024/02/03 02:53:22;;;;;;;9.20;5.60;;;;;;;7.53;68.80;98950.95;232086;200;137035;-53
2024/02/03 02:58:26;;;;;;;11.70;5.40;;;;;;;7.61;68.42;98969.81;232163;197;272696;-49
2024/02/03 03:03:29;;;;;;;10.00;5.30;;;;;;;7.67;68.00;98972.14;232097;197;138559;-52
2024/02/03 03:08:32;;;;;;;11.10;5.20;;;;;;;7.70;67.81;98966.68;232278;203;137008;-52
2024/02/03 03:13:35;;;;;;;12.40;5.60;;;;;;;7.75;67.63;98963.94;232309;204;152250;-52
2024/02/03 03:18:38;;;;;;;9.80;5.20;;;;;;;7.80;67.10;98963.86;232259;203;248037;-51
2024/02/03 03:23:42;;;;;;;11.50;5.40;;;;;;;7.82;66.94;98969.42;232271;204;136981;-53
2024/02/03 03:28:45;;;;;;;8.90;4.80;;;;;;;7.82;66.77;98966.03;232194;204;151535;-53
2024/02/03 03:33:49;;;;;;;12.50;4.90;;;;;;;7.84;66.69;98974.44;232229;204;139762;-54
2024/02/03 03:38:52;;;;;;;7.60;4.80;;;;;;;7.90;66.47;98972.73;232335;204;137303;-54
2024/02/03 03:43:55;;;;;;;7.40;4.40;;;;;;;7.97;66.23;98971.27;232203;202;154743;-51
2024/02/03 03:48:58;;;;;;;9.00;5.10;;;;;;;7.97;66.21;98979.42;232367;204;136780;-52
2024/02/03 03:54:02;;;;;;;11.10;5.20;;;;;;;7.99;66.31;98975.21;232168;204;137320;-53
2024/02/03 03:59:05;;;;;;;9.80;5.00;;;;;;;7.97;66.36;98968.49;232163;203;151914;-55
2024/02/03 04:04:08;;;;;;;9.20;4.70;;;;;;;7.98;66.40;98971.78;232122;204;138217;-54
2024/02/03 04:09:13;;;;;;;8.80;4.80;;;;;;;7.98;66.56;98968.78;232211;204;137933;-53
2024/02/03 04:14:16;;;;;;;9.20;5.00;;;;;;;8.00;66.63;98975.50;232275;204;152249;-54
2024/02/03 04:19:19;;;;;;;11.00;5.10;;;;;;;8.01;66.78;98979.38;232343;202;137251;-55
2024/02/03 04:24:23;;;;;;;11.70;4.80;;;;;;;8.09;66.75;98982.65;232213;200;137680;-55
2024/02/03 04:29:26;;;;;;;9.50;4.90;;;;;;;8.12;66.71;98965.17;232194;200;151761;-54
2024/02/03 04:34:29;;;;;;;10.50;5.00;;;;;;;8.11;66.64;98978.70;232191;204;137647;-52
2024/02/03 04:39:32;;;;;;;25.00;17.70;;;;;;;8.04;66.96;98984.86;232106;200;137617;-54
2024/02/03 04:44:36;;;;;;;11.50;7.50;;;;;;;8.07;67.29;99001.14;232272;204;152105;-53
2024/02/03 04:49:39;;;;;;;15.30;9.80;;;;;;;8.08;67.16;99011.48;232331;197;138489;-54
2024/02/03 04:54:42;;;;;;;17.30;13.10;;;;;;;8.13;67.25;99014.27;232266;200;138543;-54
2024/02/03 04:59:45;;;;;;;15.50;9.10;;;;;;;8.14;67.19;99016.36;232093;198;152074;-54
2024/02/03 05:04:49;;;;;;;42.90;29.50;;;;;;;8.12;67.35;99018.54;232252;203;137478;-54
2024/02/03 05:09:52;;;;;;;12.50;5.70;;;;;;;8.18;67.40;99004.63;232219;200;137776;-52
2024/02/03 05:14:55;;;;;;;12.00;4.40;;;;;;;8.22;67.43;98995.23;232279;203;151858;-54
2024/02/03 05:19:59;;;;;;;8.70;4.10;;;;;;;8.24;67.48;98993.00;232087;200;138850;-53
2024/02/03 05:25:02;;;;;;;11.40;5.00;;;;;;;8.29;67.59;98986.91;232427;204;137430;-54
2024/02/03 05:30:06;;;;;;;9.30;4.40;;;;;;;8.35;67.34;98998.06;232054;204;153111;-52
2024/02/03 05:35:10;;;;;;;7.70;4.00;;;;;;;8.36;67.31;99004.74;232185;204;136946;-52
2024/02/03 05:40:16;;;;;;;7.70;4.70;;;;;;;8.39;67.50;99008.49;232017;204;137680;-51
2024/02/03 05:45:22;;;;;;;9.60;4.70;;;;;;;8.42;67.38;99007.79;232277;201;152729;-51
2024/02/03 05:50:25;;;;;;;;;;;;;;;8.37;67.74;99002.80;232268;204;137825;-53
2024/02/03 05:55:28;;;;;;;7.40;4.20;;;;;;;8.34;68.02;98997.99;232431;200;136287;-51
2024/02/03 06:00:31;;;;;;;8.60;4.10;;;;;;;8.36;68.11;99022.78;232220;197;150564;-53
2024/02/03 06:05:34;;;;;;;7.10;4.50;;;;;;;8.37;68.18;99037.27;232179;201;137930;-52
2024/02/03 06:10:46;;;;;;;7.20;4.50;;;;;;;8.42;68.05;99033.22;232177;203;136607;-55
2024/02/03 06:15:52;;;;;;;7.50;4.40;;;;;;;8.43;67.95;99022.98;232178;204;151517;-52
2024/02/03 06:20:56;;;;;;;8.10;4.50;;;;;;;8.42;67.95;99030.25;232255;204;137327;-52
2024/02/03 06:25:59;;;;;;;9.60;4.60;;;;;;;8.40;67.86;99025.60;232324;201;137012;-53
2024/02/03 06:31:02;;;;;;;7.70;4.50;;;;;;;8.40;67.84;99028.59;232400;197;152035;-52
2024/02/03 06:36:06;;;;;;;6.90;4.20;;;;;;;8.43;67.54;99021.18;232191;201;138658;-53
2024/02/03 06:41:10;;;;;;;5.70;4.20;;;;;;;8.53;67.21;99020.14;232185;204;137959;-53
2024/02/03 06:46:13;;;;;;;8.20;4.50;;;;;;;8.64;66.91;99026.24;232109;201;152207;-54
2024/02/03 06:51:16;;;;;;;7.70;4.10;;;;;;;8.69;66.36;99028.63;232201;200;137367;-53
2024/02/03 06:56:19;;;;;;;5.90;4.00;;;;;;;8.72;66.32;99031.64;232331;204;137055;-51
2024/02/03 07:01:23;;;;;;;7.90;4.20;;;;;;;8.76;66.10;99044.31;232209;200;151182;-53
2024/02/03 07:06:27;;;;;;;5.80;3.90;;;;;;;8.80;65.80;99047.14;232189;198;137304;-53
2024/02/03 07:11:30;;;;;;;7.40;4.30;;;;;;;8.81;65.65;99046.58;232230;203;136826;-51
2024/02/03 07:16:33;;;;;;;7.80;4.30;;;;;;;8.81;65.70;99044.94;232034;200;151962;-55
2024/02/03 07:21:36;;;;;;;8.30;3.90;;;;;;;8.80;65.60;99042.56;232233;200;138198;-53
2024/02/03 07:26:39;;;;;;;5.70;4.00;;;;;;;8.82;65.51;99046.15;232217;204;138288;-52
2024/02/03 07:31:43;;;;;;;5.80;3.20;;;;;;;8.84;65.71;99041.06;232186;197;151712;-54
2024/02/03 07:36:46;;;;;;;7.90;4.40;;;;;;;8.90;65.59;99040.76;232065;203;139286;-53
2024/02/03 07:41:49;;;;;;;6.80;3.80;;;;;;;8.95;65.42;99038.33;232159;203;137741;-55
2024/02/03 07:46:53;;;;;;;6.90;4.00;;;;;;;9.01;65.38;99039.08;232180;197;151452;-55
2024/02/03 07:51:56;;;;;;;6.30;4.00;;;;;;;9.05;65.31;99039.20;232140;198;136904;-54
2024/02/03 07:57:04;;;;;;;6.70;4.00;;;;;;;9.09;65.24;99036.36;232281;204;137598;-54
2024/02/03 08:02:08;;;;;;;9.00;4.30;;;;;;;9.08;65.23;99042.56;232118;202;151364;-56
2024/02/03 08:07:11;;;;;;;10.50;3.80;;;;;;;9.15;65.22;99029.61;232345;203;137020;-55
2024/02/03 08:12:14;;;;;;;8.60;4.00;;;;;;;9.19;65.13;99019.48;232192;200;138459;-56
2024/02/03 08:17:17;;;;;;;10.20;4.20;;;;;;;9.28;64.94;99020.02;232193;201;153187;-55
2024/02/03 08:22:20;;;;;;;5.60;3.60;;;;;;;9.38;64.81;99016.46;232119;204;142419;-55
2024/02/03 08:27:23;;;;;;;6.70;3.80;;;;;;;9.38;64.76;99021.05;232196;203;136502;-54
2024/02/03 08:32:27;;;;;;;5.30;3.60;;;;;;;9.37;64.89;99018.46;231908;203;153676;-54
2024/02/03 08:37:30;;;;;;;6.20;3.50;;;;;;;9.37;65.06;99018.98;232326;201;137377;-55
2024/02/03 08:42:33;;;;;;;7.70;4.00;;;;;;;9.38;65.20;99030.82;232122;200;139383;-54
2024/02/03 08:47:37;;;;;;;7.90;4.00;;;;;;;9.34;65.36;99032.94;232106;197;153806;-55
2024/02/03 08:52:40;;;;;;;6.40;3.90;;;;;;;9.34;65.51;99029.04;232129;197;137314;-56
2024/02/03 08:57:43;;;;;;;8.00;3.90;;;;;;;9.38;65.57;99027.59;232029;198;140415;-53
2024/02/03 09:02:47;;;;;;;8.50;4.10;;;;;;;9.41;65.76;99029.77;232284;204;151714;-51
2024/02/03 09:07:52;;;;;;;9.40;4.20;;;;;;;9.48;65.86;99029.48;232369;200;137661;-55
2024/02/03 09:12:55;;;;;;;7.90;4.10;;;;;;;9.53;65.80;99022.31;231804;204;138224;-55
2024/02/03 09:17:59;;;;;;;6.70;4.20;;;;;;;9.56;65.98;99018.09;232151;196;151589;-54
2024/02/03 09:23:02;;;;;;;5.00;4.10;;;;;;;9.55;66.12;99021.63;232145;204;137199;-56
2024/02/03 09:28:06;;;;;;;7.30;4.10;;;;;;;9.56;66.14;99008.33;232150;204;138168;-54
2024/02/03 09:33:09;;;;;;;8.60;4.30;;;;;;;9.53;66.14;99004.42;231948;200;151521;-54
2024/02/03 09:38:13;;;;;;;9.20;4.10;;;;;;;9.58;65.98;99000.42;232252;204;137439;-56
2024/02/03 09:43:16;;;;;;;8.00;3.80;;;;;;;9.64;65.76;99011.40;232259;197;138456;-55
2024/02/03 09:48:22;;;;;;;7.60;4.20;;;;;;;9.71;65.32;99021.95;232178;204;151497;-56
2024/02/03 09:53:26;;;;;;;8.30;4.30;;;;;;;9.74;65.36;99021.61;231984;204;137333;-53
2024/02/03 09:58:29;;;;;;;8.00;4.00;;;;;;;9.78;65.30;99010.38;232053;204;137865;-55
2024/02/03 10:03:33;;;;;;;7.90;4.00;;;;;;;9.77;65.38;99014.55;231734;200;151974;-54
2024/02/03 10:08:36;;;;;;;8.80;4.30;;;;;;;9.70;65.52;99012.30;232166;204;137151;-55
2024/02/03 10:13:40;;;;;;;8.00;4.60;;;;;;;9.73;65.74;98998.80;232316;200;137978;-56
2024/02/03 10:18:43;;;;;;;7.10;4.70;;;;;;;9.80;65.59;99005.16;232153;200;151667;-56
2024/02/03 10:23:51;;;;;;;7.00;3.80;;;;;;;9.82;65.47;99003.10;232081;197;138158;-56
2024/02/03 10:28:54;;;;;;;6.40;3.90;;;;;;;9.83;65.40;99002.81;231982;197;137869;-53
2024/02/03 10:33:59;;;;;;;8.10;4.50;;;;;;;9.88;65.33;98990.14;232117;200;151389;-52
2024/02/03 10:39:03;;;;;;;;;;;;;;;9.91;65.17;98999.88;232209;203;137110;-51
2024/02/03 10:44:07;;;;;;;6.50;4.30;;;;;;;9.89;65.30;98999.44;232330;200;136395;-53
2024/02/03 10:49:15;;;;;;;8.20;4.10;;;;;;;9.90;65.49;99004.18;232200;203;153462;-51
2024/02/03 10:54:24;;;;;;;7.30;4.60;;;;;;;9.93;65.61;98998.36;232177;204;137749;-54
2024/02/03 10:59:27;;;;;;;12.40;5.20;;;;;;;9.93;65.75;98999.92;232109;200;140565;-54
2024/02/03 11:04:38;;;;;;;7.00;4.50;;;;;;;9.90;66.17;99001.02;232148;202;151290;-58
2024/02/03 11:09:42;;;;;;;10.10;5.20;;;;;;;9.93;66.82;98997.98;232190;200;137780;-54
2024/02/03 11:14:46;;;;;;;7.30;4.20;;;;;;;10.01;67.11;98996.43;232111;204;138477;-56
2024/02/03 11:19:54;;;;;;;8.00;4.90;;;;;;;10.00;67.66;98998.27;232239;196;152425;-57
2024/02/03 11:24:58;;;;;;;7.10;4.70;;;;;;;9.95;68.34;98984.22;232238;204;137478;-56
2024/02/03 11:30:04;;;;;;;6.40;4.40;;;;;;;9.89;68.60;98982.80;232110;196;137781;-57
2024/02/03 11:35:08;;;;;;;;;;;;;;;9.85;69.00;98982.85;232248;200;151340;-57
2024/02/03 11:40:12;;;;;;;7.00;4.10;;;;;;;9.84;69.36;98981.00;232057;204;136433;-58
2024/02/03 11:45:23;;;;;;;9.30;5.50;;;;;;;9.97;69.41;98981.09;232204;203;137242;-57
2024/02/03 11:50:27;;;;;;;8.00;4.00;;;;;;;10.00;69.45;98980.40;232124;204;151160;-58
2024/02/03 11:55:31;;;;;;;8.90;5.50;;;;;;;9.93;70.31;98973.54;232274;197;136958;-55
2024/02/03 12:00:34;;;;;;;15.70;12.10;;;;;;;9.96;70.67;98980.10;232191;201;137246;-56
2024/02/03 12:05:38;;;;;;;6.60;4.30;;;;;;;9.99;71.06;98989.09;232137;200;152730;-57
2024/02/03 12:10:42;;;;;;;6.90;4.40;;;;;;;9.89;71.48;98984.39;232061;204;137676;-58
2024/02/03 12:15:45;;;;;;;9.70;4.40;;;;;;;9.90;72.07;98987.00;232057;201;137730;-58
2024/02/03 12:20:48;;;;;;;13.70;7.40;;;;;;;9.80;72.77;98986.20;232165;204;154288;-57
2024/02/03 12:25:52;;;;;;;8.00;4.60;;;;;;;9.76;73.18;98988.70;232323;204;136694;-55
2024/02/03 12:30:56;;;;;;;6.80;4.70;;;;;;;9.69;73.81;98997.59;232097;204;137494;-55
2024/02/03 12:35:59;;;;;;;7.60;4.30;;;;;;;9.69;74.32;99005.80;232070;204;151768;-56
2024/02/03 12:41:04;;;;;;;8.20;5.00;;;;;;;9.66;74.53;99004.56;232091;200;137191;-55
2024/02/03 12:46:07;;;;;;;7.30;5.10;;;;;;;9.69;74.89;99004.54;232188;201;136820;-56
2024/02/03 12:51:11;;;;;;;7.50;4.70;;;;;;;9.71;74.98;99001.58;232195;200;151578;-53
2024/02/03 12:56:15;;;;;;;6.70;4.70;;;;;;;9.69;75.25;99011.61;232082;204;139664;-56
2024/02/03 13:01:19;;;;;;;8.50;5.20;;;;;;;9.70;75.46;99010.88;232316;200;137799;-54
2024/02/03 13:06:23;;;;;;;8.80;5.40;;;;;;;9.61;76.06;98997.75;232038;197;153078;-56
2024/02/03 13:11:26;;;;;;;8.20;5.00;;;;;;;9.61;76.33;98995.29;232134;197;136759;-55
2024/02/03 13:16:31;;;;;;;6.80;4.40;;;;;;;9.54;76.62;99001.85;232049;197;137822;-56
2024/02/03 13:21:34;;;;;;;7.10;4.40;;;;;;;9.56;77.02;98997.36;232164;200;151360;-56
2024/02/03 13:26:37;;;;;;;8.50;5.30;;;;;;;9.57;77.23;98998.88;232020;197;137204;-53
2024/02/03 13:31:40;;;;;;;8.20;4.80;;;;;;;9.62;77.15;98999.44;232290;200;136901;-57
2024/02/03 13:36:44;;;;;;;10.40;5.20;;;;;;;9.64;77.31;98998.29;232075;200;151551;-57
2024/02/03 13:41:47;;;;;;;6.20;4.10;;;;;;;9.60;77.47;99003.33;232040;200;137790;-58
2024/02/03 13:46:50;;;;;;;7.20;4.40;;;;;;;9.62;77.79;99000.89;232073;204;137982;-58
2024/02/03 13:51:54;;;;;;;7.70;4.50;;;;;;;9.69;77.69;99012.87;232125;200;151328;-58
2024/02/03 13:56:57;;;;;;;8.00;4.50;;;;;;;9.71;77.68;99009.55;232155;197;136992;-57
2024/02/03 14:02:01;;;;;;;7.60;4.80;;;;;;;9.71;77.69;99006.00;232124;204;136790;-58
2024/02/03 14:07:04;;;;;;;7.10;4.90;;;;;;;9.70;77.69;99020.59;232231;204;151687;-58
2024/02/03 14:12:07;;;;;;;7.10;5.00;;;;;;;9.71;77.63;99017.70;232076;204;140009;-59
2024/02/03 14:17:11;;;;;;;7.40;5.10;;;;;;;9.73;77.56;99011.77;232104;204;136911;-60
2024/02/03 14:22:14;;;;;;;6.50;4.80;;;;;;;9.74;77.65;99004.59;232127;204;151580;-54
2024/02/03 14:27:17;;;;;;;54.40;42.20;;;;;;;9.80;77.76;99001.61;232212;204;137336;-58
2024/02/03 14:32:21;;;;;;;8.40;5.50;;;;;;;9.91;77.42;99005.73;232163;203;138509;-57
2024/02/03 14:37:26;;;;;;;7.60;4.90;;;;;;;9.95;77.49;99001.20;232249;200;152805;-56
2024/02/03 14:42:29;;;;;;;10.00;4.80;;;;;;;9.98;77.41;98995.00;232031;204;137107;-55
2024/02/03 14:47:32;;;;;;;9.30;4.90;;;;;;;9.98;77.40;98992.91;232232;197;137164;-52
2024/02/03 14:52:36;;;;;;;18.40;12.10;;;;;;;9.98;77.21;98994.88;232164;201;152816;-54
2024/02/03 14:57:39;;;;;;;8.20;4.90;;;;;;;9.99;77.08;98999.03;232142;203;139689;-52
2024/02/03 15:02:42;;;;;;;83.60;61.80;;;;;;;10.08;76.76;98998.65;232065;197;137841;-55
2024/02/03 15:07:47;;;;;;;8.30;5.30;;;;;;;10.19;76.47;99004.20;232137;198;151532;-51
2024/02/03 15:12:50;;;;;;;8.60;4.90;;;;;;;10.28;75.64;99001.22;232118;204;137108;-55
2024/02/03 15:17:53;;;;;;;8.70;4.80;;;;;;;10.30;75.33;98999.15;232079;200;137543;-54
2024/02/03 15:22:58;;;;;;;8.60;4.70;;;;;;;10.31;75.19;99006.19;232220;204;153116;-56
2024/02/03 15:28:01;;;;;;;9.20;4.70;;;;;;;10.23;75.25;99014.27;232115;203;137891;-53
2024/02/03 15:33:05;;;;;;;7.10;4.50;;;;;;;10.20;75.35;99011.96;232204;200;138202;-58
2024/02/03 15:38:08;;;;;;;7.60;4.60;;;;;;;10.28;75.16;99011.65;232175;200;151189;-55
2024/02/03 15:43:13;;;;;;;7.00;4.60;;;;;;;10.36;74.72;99022.38;232270;204;136975;-53
2024/02/03 15:48:16;;;;;;;9.60;4.40;;;;;;;10.38;74.26;99029.47;231899;198;137458;-52
2024/02/03 15:53:20;;;;;;;8.30;4.90;;;;;;;10.37;73.96;99040.17;232066;203;151787;-53
2024/02/03 15:58:23;;;;;;;8.40;4.40;;;;;;;10.38;73.70;99032.66;232062;197;136916;-59
2024/02/03 16:03:27;;;;;;;7.00;4.70;;;;;;;10.42;73.49;99045.91;232137;203;138277;-54
2024/02/03 16:08:31;;;;;;;12.10;7.80;;;;;;;10.48;73.49;99050.34;232146;204;152241;-57
2024/02/03 16:13:34;;;;;;;9.80;4.80;;;;;;;10.57;72.97;99052.27;232235;197;140300;-57
2024/02/03 16:18:38;;;;;;;7.20;4.00;;;;;;;10.50;72.21;99045.95;232060;197;137091;-55
2024/02/03 16:23:41;;;;;;;6.10;3.50;;;;;;;10.45;72.43;99045.02;232091;204;153351;-56
2024/02/03 16:28:44;;;;;;;9.50;4.70;;;;;;;10.47;72.59;99050.59;232100;201;137482;-55
2024/02/03 16:33:48;;;;;;;4.40;2.90;;;;;;;10.49;72.40;99046.37;232131;200;137351;-56
2024/02/03 16:38:53;;;;;;;4.30;2.40;;;;;;;10.50;72.32;99048.09;232124;200;150528;-54
2024/02/03 16:43:56;;;;;;;5.10;2.40;;;;;;;10.54;72.39;99044.66;232181;203;138882;-53
2024/02/03 16:49:01;;;;;;;6.70;4.40;;;;;;;10.53;72.81;99029.48;231994;204;136832;-55
2024/02/03 16:54:04;;;;;;;7.50;4.00;;;;;;;10.49;72.72;99027.60;232088;200;151437;-56
2024/02/03 16:59:08;;;;;;;7.50;4.10;;;;;;;10.39;72.76;99027.30;231858;197;137777;-55
2024/02/03 17:04:16;;;;;;;8.60;4.20;;;;;;;10.37;72.85;99037.66;232077;204;138467;-56
2024/02/03 17:09:19;;;;;;;7.90;4.90;;;;;;;10.42;72.70;99035.48;232142;203;152120;-56
2024/02/03 17:14:22;;;;;;;8.00;5.00;;;;;;;10.44;72.46;99042.60;232098;200;137787;-55
2024/02/03 17:19:26;;;;;;;10.80;5.30;;;;;;;10.40;72.40;99043.55;232255;204;137699;-55
2024/02/03 17:24:29;;;;;;;10.30;5.50;;;;;;;10.33;72.72;99041.48;232130;204;151942;-56
2024/02/03 17:29:33;;;;;;;8.20;5.30;;;;;;;10.25;73.14;99038.27;232004;204;138821;-57
2024/02/03 17:34:37;;;;;;;7.60;5.00;;;;;;;10.18;73.38;99040.45;231863;197;137761;-57
2024/02/03 17:39:41;;;;;;;8.80;5.70;;;;;;;10.12;73.60;99042.54;232059;197;151593;-55
2024/02/03 17:44:44;;;;;;;9.00;5.20;;;;;;;10.12;73.77;99056.40;232124;203;137419;-54
2024/02/03 17:49:47;;;;;;;9.90;5.80;;;;;;;10.08;74.05;99059.63;232133;201;140537;-55
2024/02/03 17:54:51;;;;;;;10.10;6.10;;;;;;;10.00;74.34;99063.85;232055;200;153490;-53
2024/02/03 17:59:54;;;;;;;10.40;4.90;;;;;;;9.94;74.83;99056.19;232153;203;142644;-54
2024/02/03 18:04:57;;;;;;;9.80;5.40;;;;;;;9.90;74.96;99036.75;232186;200;138126;-56
2024/02/03 18:10:01;;;;;;;8.20;5.20;;;;;;;9.88;75.02;99045.56;231970;201;151394;-53
2024/02/03 18:15:05;;;;;;;8.40;5.40;;;;;;;9.82;75.07;99044.88;232103;204;137608;-55
2024/02/03 18:20:10;;;;;;;8.20;4.70;;;;;;;9.79;75.18;99048.61;232228;203;137582;-54
2024/02/03 18:25:18;;;;;;;7.20;4.10;;;;;;;9.72;75.32;99039.48;232209;200;151255;-56
2024/02/03 18:30:22;;;;;;;6.80;4.00;;;;;;;9.71;75.55;99042.66;232031;203;137863;-55
2024/02/03 18:35:25;;;;;;;7.90;4.20;;;;;;;9.71;76.03;99052.43;232008;204;136985;-56
2024/02/03 18:40:28;;;;;;;39.70;31.30;;;;;;;9.67;76.27;99054.98;232079;204;152577;-53
2024/02/03 18:45:34;;;;;;;6.60;4.50;;;;;;;9.72;76.56;99060.68;232088;200;138298;-55
2024/02/03 18:50:38;;;;;;;11.10;7.90;;;;;;;9.77;76.79;99060.41;232172;204;138607;-55
2024/02/03 18:55:45;;;;;;;13.60;7.50;;;;;;;9.80;76.63;99062.55;231972;200;153704;-57
2024/02/03 19:00:49;;;;;;;8.40;4.50;;;;;;;10.15;78.62;99058.71;232121;200;138604;-52
2024/02/03 19:05:52;;;;;;;7.70;4.40;;;;;;;10.06;76.10;99057.09;232158;204;138094;-51
2024/02/03 19:10:56;;;;;;;8.90;4.70;;;;;;;9.97;76.13;99049.67;232073;204;153214;-55
2024/02/03 19:15:59;;;;;;;7.80;4.90;;;;;;;9.85;76.34;99041.70;232041;203;137429;-54
2024/02/03 19:21:03;;;;;;;6.30;4.00;;;;;;;9.77;76.49;99037.04;232016;204;137322;-55
2024/02/03 19:26:08;;;;;;;8.20;4.50;;;;;;;9.77;76.67;99038.66;232059;204;153464;-54
2024/02/03 19:31:14;;;;;;;5.60;4.10;;;;;;;9.80;76.58;99043.26;232173;197;137702;-53
2024/02/03 19:36:18;;;;;;;6.70;4.20;;;;;;;9.87;76.40;99037.34;232103;204;138220;-53
2024/02/03 19:41:21;;;;;;;7.40;4.60;;;;;;;9.83;76.30;99042.33;231817;200;153992;-55
2024/02/03 19:46:24;;;;;;;6.50;3.80;;;;;;;9.83;76.42;99038.09;231965;204;138523;-53
2024/02/03 19:51:28;;;;;;;5.70;3.60;;;;;;;9.84;76.29;99035.71;232095;204;139099;-53
2024/02/03 19:56:31;;;;;;;6.40;4.10;;;;;;;9.88;76.12;99036.38;232154;203;153949;-55
2024/02/03 20:01:35;;;;;;;6.80;3.70;;;;;;;9.93;75.77;99040.86;232069;200;138739;-54
2024/02/03 20:06:39;;;;;;;5.00;3.60;;;;;;;9.92;75.59;99041.98;231954;198;139641;-54
2024/02/03 20:11:43;;;;;;;6.10;3.90;;;;;;;9.91;75.37;99038.14;232123;201;154423;-55
2024/02/03 20:16:49;;;;;;;5.90;3.60;;;;;;;9.87;75.29;99039.48;232058;200;138874;-52
2024/02/03 20:21:52;;;;;;;236.60;162.50;;;;;;;9.86;75.46;99033.30;232154;204;138635;-51
2024/02/03 20:26:56;;;;;;;9.40;6.50;;;;;;;10.01;75.44;99028.72;232153;203;153418;-55
2024/02/03 20:31:59;;;;;;;7.60;4.10;;;;;;;10.08;74.72;99027.42;232217;203;138274;-53
2024/02/03 20:37:03;;;;;;;9.40;5.70;;;;;;;10.03;74.48;99031.20;232207;197;139379;-50
2024/02/03 20:42:06;;;;;;;5.90;3.50;;;;;;;9.95;74.29;99026.55;232179;204;153255;-52
2024/02/03 20:47:12;;;;;;;6.10;3.10;;;;;;;9.81;74.58;99017.83;232133;203;138558;-51
2024/02/03 20:52:15;;;;;;;5.40;3.00;;;;;;;9.71;75.01;99019.83;232123;200;138608;-54
2024/02/03 20:57:19;;;;;;;6.60;3.40;;;;;;;9.64;75.41;99022.69;232005;204;154109;-52
2024/02/03 21:02:22;;;;;;;4.60;3.20;;;;;;;9.67;75.62;99024.99;232126;200;138572;-54
2024/02/03 21:07:26;;;;;;;4.80;2.90;;;;;;;9.65;75.83;99019.48;232231;201;139144;-53
2024/02/03 21:12:31;;;;;;;5.80;3.20;;;;;;;9.63;75.99;99025.97;232138;204;152999;-54
2024/02/03 21:17:35;;;;;;;5.10;3.10;;;;;;;9.59;76.32;99021.27;232149;197;138065;-54
2024/02/03 21:22:38;;;;;;;4.50;3.40;;;;;;;9.57;76.54;99017.12;232053;197;137185;-53
2024/02/03 21:27:42;;;;;;;4.80;3.60;;;;;;;9.56;76.45;99004.05;232085;204;154348;-52
2024/02/03 21:32:45;;;;;;;5.20;3.20;;;;;;;9.54;76.32;98998.33;232067;204;138540;-52
2024/02/03 21:37:48;;;;;;;5.50;3.50;;;;;;;9.49;76.56;99004.50;231869;200;140983;-53
2024/02/03 21:42:53;;;;;;;5.30;3.40;;;;;;;9.51;76.92;99003.11;232018;198;153669;-51
2024/02/03 21:47:57;;;;;;;6.50;4.00;;;;;;;9.53;76.95;98991.54;232077;203;138611;-50
2024/02/03 21:53:00;;;;;;;5.80;3.90;;;;;;;9.54;77.04;98981.49;232067;204;138450;-53
2024/02/03 21:58:04;;;;;;;5.20;4.00;;;;;;;9.57;76.70;98976.55;232047;197;153002;-54
2024/02/03 22:03:11;;;;;;;6.00;3.20;;;;;;;9.53;76.75;98985.13;230835;204;138733;-54
2024/02/03 22:08:15;;;;;;;7.20;3.50;;;;;;;9.52;76.98;98985.37;232123;204;138792;-52
2024/02/03 22:13:18;;;;;;;6.70;3.70;;;;;;;9.54;77.10;98985.80;232205;204;154397;-53
2024/02/03 22:18:21;;;;;;;7.00;3.20;;;;;;;9.50;77.25;98986.35;232128;200;137751;-52
2024/02/03 22:23:25;;;;;;;5.30;3.20;;;;;;;9.45;77.33;98988.05;231963;200;138220;-53
2024/02/03 22:28:28;;;;;;;5.90;4.00;;;;;;;9.40;77.76;98993.52;232114;200;153290;-55
2024/02/03 22:33:31;;;;;;;5.70;3.40;;;;;;;9.36;77.98;98993.02;232020;201;138391;-51
2024/02/03 22:38:35;;;;;;;6.00;3.70;;;;;;;9.36;78.11;98989.48;232133;204;138698;-54
2024/02/03 22:43:38;;;;;;;6.90;3.50;;;;;;;9.48;77.94;98978.84;232260;204;153676;-54
2024/02/03 22:48:41;;;;;;;6.00;3.60;;;;;;;9.54;77.84;98980.44;232110;204;137484;-54
2024/02/03 22:53:45;;;;;;;5.90;3.30;;;;;;;9.54;77.68;98977.77;232142;203;138444;-53
2024/02/03 22:58:48;;;;;;;5.60;3.30;;;;;;;9.49;77.41;98967.64;232132;203;153247;-54
2024/02/03 23:03:51;;;;;;;5.40;3.10;;;;;;;9.44;77.32;98964.37;232137;197;138286;-53
2024/02/03 23:08:54;;;;;;;6.80;3.00;;;;;;;9.38;77.11;98959.09;232008;204;137957;-55
2024/02/03 23:13:58;;;;;;;4.90;3.10;;;;;;;9.41;77.11;98954.65;232294;200;153972;-52
2024/02/03 23:19:01;;;;;;;5.70;3.00;;;;;;;9.47;76.86;98952.33;232189;196;138077;-53
2024/02/03 23:24:06;;;;;;;4.90;3.00;;;;;;;9.49;76.41;98947.44;232102;204;138333;-53
2024/02/03 23:29:09;;;;;;;5.90;3.00;;;;;;;9.53;76.29;98950.19;232222;204;154037;-54
2024/02/03 23:34:12;;;;;;;3.70;2.70;;;;;;;9.56;75.96;98946.69;232177;197;138998;-54
2024/02/03 23:39:16;;;;;;;4.20;2.70;;;;;;;9.57;75.76;98926.07;231848;203;142096;-60
2024/02/03 23:44:19;;;;;;;4.50;2.50;;;;;;;9.60;75.75;98928.90;231941;200;154344;-60